Hlavní strana
METAR-TAF:

METAR-TAF

Letiště :

Verona, Itálie

zeměpisná šířka: 45-23N, zeměpisná délka: 010-52E, výška: 67 m

Aktuální stav počasí

Zpráva byla vytvořena před 17 minutami, v 09:20 UTC
vítr z různých směrů 2 kt
Teplota 10°C
Vlhkost vzduchu 50%
Tlak 1032 hPa
Viditelnost 10 km a více
Žádná oblačnost pod 1500 m, nevyskytují se cumulonimby.

METAR: LIPX 160920Z VRB02KT CAVOK 10/00 Q1032

Čas: 10:37 (09:37 UTC)

Předpověď počasí

Zpráva byla vytvořena před 1 hodinou a 37 minutami, v 08:00 UTC
Předpověď platná od 16 v 09 UTC do 16 v 18 UTC
vítr z různých směrů 5 kt
Viditelnost: 8000 m

TAF: LIPX 160800Z 1609/1618 VRB05KT 8000 NSC

Stav a předpovědi počasí z více než 4 000 letišť (zprávy METAR a TAF).

Červené a žluté tečky na mapě představují dostupné meteorologické stanice.

Když kurzor umístíte na tečku, zobrazí se název stanice.

Pak kliknutím zobrazíte stav a předpověď počasí.

Chcete-li změnit mapu, kliknutím na zelené tlačítko se znaménkem +mapu přiblížíte, kliknutím na zelené tlačítko se znaménkem – mapu oddálíte a kliknutím na zelené šipky přejdete na sousední mapy.


METAR-TAF: